sensor_id;sensor_type;location;lat;lon;timestamp;P1;durP1;ratioP1;P2;durP2;ratioP2
55330;SDS011;58851;42.984;20.336;2023-06-10T00:00:00;12.40;;;8.68;;
55330;SDS011;58851;42.984;20.336;2023-06-10T00:02:26;9.02;;;7.50;;
55330;SDS011;58851;42.984;20.336;2023-06-10T00:04:52;12.80;;;7.78;;
55330;SDS011;58851;42.984;20.336;2023-06-10T00:07:18;7.85;;;6.30;;
55330;SDS011;58851;42.984;20.336;2023-06-10T00:09:44;12.68;;;7.40;;
55330;SDS011;58851;42.984;20.336;2023-06-10T00:12:10;9.63;;;6.70;;
55330;SDS011;58851;42.984;20.336;2023-06-10T00:14:36;10.07;;;6.80;;
55330;SDS011;58851;42.984;20.336;2023-06-10T00:17:04;11.10;;;7.40;;
55330;SDS011;58851;42.984;20.336;2023-06-10T00:19:34;10.10;;;7.50;;
55330;SDS011;58851;42.984;20.336;2023-06-10T00:22:01;11.27;;;8.02;;
55330;SDS011;58851;42.984;20.336;2023-06-10T00:24:28;12.48;;;8.80;;
55330;SDS011;58851;42.984;20.336;2023-06-10T00:26:54;15.43;;;8.55;;
55330;SDS011;58851;42.984;20.336;2023-06-10T00:29:20;12.82;;;9.30;;
55330;SDS011;58851;42.984;20.336;2023-06-10T00:31:46;12.00;;;9.23;;
55330;SDS011;58851;42.984;20.336;2023-06-10T00:34:12;12.75;;;8.18;;
55330;SDS011;58851;42.984;20.336;2023-06-10T00:36:38;11.20;;;8.98;;
55330;SDS011;58851;42.984;20.336;2023-06-10T00:39:04;10.98;;;7.90;;
55330;SDS011;58851;42.984;20.336;2023-06-10T00:41:29;9.35;;;7.47;;
55330;SDS011;58851;42.984;20.336;2023-06-10T00:43:56;12.90;;;8.02;;
55330;SDS011;58851;42.984;20.336;2023-06-10T00:46:22;8.45;;;6.57;;
55330;SDS011;58851;42.984;20.336;2023-06-10T00:48:50;8.30;;;6.25;;
55330;SDS011;58851;42.984;20.336;2023-06-10T00:51:16;9.63;;;6.45;;
55330;SDS011;58851;42.984;20.336;2023-06-10T00:53:42;9.48;;;6.20;;
55330;SDS011;58851;42.984;20.336;2023-06-10T00:56:09;26.60;;;6.82;;
55330;SDS011;58851;42.984;20.336;2023-06-10T00:58:35;9.75;;;7.00;;
55330;SDS011;58851;42.984;20.336;2023-06-10T01:01:01;9.27;;;6.90;;
55330;SDS011;58851;42.984;20.336;2023-06-10T01:03:29;8.00;;;5.88;;
55330;SDS011;58851;42.984;20.336;2023-06-10T01:06:00;7.18;;;5.85;;
55330;SDS011;58851;42.984;20.336;2023-06-10T01:11:14;10.48;;;6.32;;
55330;SDS011;58851;42.984;20.336;2023-06-10T01:13:53;10.35;;;6.00;;
55330;SDS011;58851;42.984;20.336;2023-06-10T01:16:21;9.45;;;6.20;;
55330;SDS011;58851;42.984;20.336;2023-06-10T01:18:48;12.70;;;7.15;;
55330;SDS011;58851;42.984;20.336;2023-06-10T01:21:23;8.02;;;6.18;;
55330;SDS011;58851;42.984;20.336;2023-06-10T01:23:50;13.07;;;8.10;;
55330;SDS011;58851;42.984;20.336;2023-06-10T01:26:22;9.20;;;6.72;;
55330;SDS011;58851;42.984;20.336;2023-06-10T01:29:00;10.50;;;7.47;;
55330;SDS011;58851;42.984;20.336;2023-06-10T01:31:41;9.20;;;6.82;;
55330;SDS011;58851;42.984;20.336;2023-06-10T01:34:22;13.43;;;8.82;;
55330;SDS011;58851;42.984;20.336;2023-06-10T01:36:49;13.35;;;9.38;;
55330;SDS011;58851;42.984;20.336;2023-06-10T01:39:16;12.40;;;9.70;;
55330;SDS011;58851;42.984;20.336;2023-06-10T01:41:44;17.52;;;9.15;;
55330;SDS011;58851;42.984;20.336;2023-06-10T01:44:11;13.43;;;9.15;;
55330;SDS011;58851;42.984;20.336;2023-06-10T01:46:37;13.02;;;8.02;;
55330;SDS011;58851;42.984;20.336;2023-06-10T01:49:03;12.73;;;8.45;;
55330;SDS011;58851;42.984;20.336;2023-06-10T01:51:29;16.08;;;9.07;;
55330;SDS011;58851;42.984;20.336;2023-06-10T01:53:56;11.55;;;8.15;;
55330;SDS011;58851;42.984;20.336;2023-06-10T01:56:22;15.93;;;8.00;;
55330;SDS011;58851;42.984;20.336;2023-06-10T01:58:48;11.60;;;7.82;;
55330;SDS011;58851;42.984;20.336;2023-06-10T02:01:14;12.02;;;7.90;;
55330;SDS011;58851;42.984;20.336;2023-06-10T02:03:39;13.80;;;7.57;;
55330;SDS011;58851;42.984;20.336;2023-06-10T02:06:06;14.88;;;8.13;;
55330;SDS011;58851;42.984;20.336;2023-06-10T02:08:31;13.43;;;9.27;;
55330;SDS011;58851;42.984;20.336;2023-06-10T02:10:57;11.63;;;8.35;;
55330;SDS011;58851;42.984;20.336;2023-06-10T02:13:23;11.20;;;8.15;;
55330;SDS011;58851;42.984;20.336;2023-06-10T02:15:49;11.48;;;8.55;;
55330;SDS011;58851;42.984;20.336;2023-06-10T02:18:15;15.52;;;8.85;;
55330;SDS011;58851;42.984;20.336;2023-06-10T02:20:40;9.57;;;7.70;;
55330;SDS011;58851;42.984;20.336;2023-06-10T02:23:06;13.65;;;7.93;;
55330;SDS011;58851;42.984;20.336;2023-06-10T02:25:32;12.90;;;7.85;;
55330;SDS011;58851;42.984;20.336;2023-06-10T02:27:58;14.80;;;8.35;;
55330;SDS011;58851;42.984;20.336;2023-06-10T02:30:23;14.35;;;8.90;;
55330;SDS011;58851;42.984;20.336;2023-06-10T02:32:49;13.15;;;9.77;;
55330;SDS011;58851;42.984;20.336;2023-06-10T02:35:15;12.80;;;8.88;;
55330;SDS011;58851;42.984;20.336;2023-06-10T02:37:42;12.98;;;8.32;;
55330;SDS011;58851;42.984;20.336;2023-06-10T02:40:09;19.98;;;8.70;;
55330;SDS011;58851;42.984;20.336;2023-06-10T02:42:35;14.73;;;8.52;;
55330;SDS011;58851;42.984;20.336;2023-06-10T02:45:01;14.05;;;8.60;;
55330;SDS011;58851;42.984;20.336;2023-06-10T02:47:28;11.15;;;7.88;;
55330;SDS011;58851;42.984;20.336;2023-06-10T02:49:53;11.63;;;8.55;;
55330;SDS011;58851;42.984;20.336;2023-06-10T02:52:19;12.18;;;8.52;;
55330;SDS011;58851;42.984;20.336;2023-06-10T02:54:45;12.52;;;8.40;;
55330;SDS011;58851;42.984;20.336;2023-06-10T02:57:11;13.98;;;7.93;;
55330;SDS011;58851;42.984;20.336;2023-06-10T02:59:39;12.98;;;8.38;;
55330;SDS011;58851;42.984;20.336;2023-06-10T03:02:05;11.70;;;7.65;;
55330;SDS011;58851;42.984;20.336;2023-06-10T03:04:31;12.95;;;8.00;;
55330;SDS011;58851;42.984;20.336;2023-06-10T03:06:57;12.52;;;8.25;;
55330;SDS011;58851;42.984;20.336;2023-06-10T03:09:23;11.68;;;8.48;;
55330;SDS011;58851;42.984;20.336;2023-06-10T03:11:48;12.10;;;9.02;;
55330;SDS011;58851;42.984;20.336;2023-06-10T03:14:14;13.85;;;9.00;;
55330;SDS011;58851;42.984;20.336;2023-06-10T03:16:40;12.32;;;8.80;;
55330;SDS011;58851;42.984;20.336;2023-06-10T03:19:07;14.13;;;8.95;;
55330;SDS011;58851;42.984;20.336;2023-06-10T03:21:34;11.50;;;8.25;;
55330;SDS011;58851;42.984;20.336;2023-06-10T03:24:00;11.55;;;8.20;;
55330;SDS011;58851;42.984;20.336;2023-06-10T03:26:26;11.27;;;7.55;;
55330;SDS011;58851;42.984;20.336;2023-06-10T03:28:53;11.45;;;8.63;;
55330;SDS011;58851;42.984;20.336;2023-06-10T03:31:18;10.50;;;7.97;;
55330;SDS011;58851;42.984;20.336;2023-06-10T03:33:44;11.35;;;8.35;;
55330;SDS011;58851;42.984;20.336;2023-06-10T03:36:10;11.40;;;7.47;;
55330;SDS011;58851;42.984;20.336;2023-06-10T03:38:36;10.80;;;7.53;;
55330;SDS011;58851;42.984;20.336;2023-06-10T03:41:02;13.43;;;7.05;;
55330;SDS011;58851;42.984;20.336;2023-06-10T03:43:28;10.50;;;6.82;;
55330;SDS011;58851;42.984;20.336;2023-06-10T03:45:54;12.48;;;7.20;;
55330;SDS011;58851;42.984;20.336;2023-06-10T03:48:19;11.23;;;6.72;;
55330;SDS011;58851;42.984;20.336;2023-06-10T03:50:45;12.82;;;7.40;;
55330;SDS011;58851;42.984;20.336;2023-06-10T03:53:12;14.27;;;7.45;;
55330;SDS011;58851;42.984;20.336;2023-06-10T03:55:38;10.10;;;6.68;;
55330;SDS011;58851;42.984;20.336;2023-06-10T03:58:04;15.90;;;6.30;;
55330;SDS011;58851;42.984;20.336;2023-06-10T04:00:30;13.02;;;7.10;;
55330;SDS011;58851;42.984;20.336;2023-06-10T04:03:09;12.43;;;6.80;;
55330;SDS011;58851;42.984;20.336;2023-06-10T04:05:39;11.10;;;5.90;;
55330;SDS011;58851;42.984;20.336;2023-06-10T04:08:06;9.48;;;5.72;;
55330;SDS011;58851;42.984;20.336;2023-06-10T04:10:33;10.93;;;6.47;;
55330;SDS011;58851;42.984;20.336;2023-06-10T04:12:58;11.02;;;7.18;;
55330;SDS011;58851;42.984;20.336;2023-06-10T04:15:24;11.48;;;7.25;;
55330;SDS011;58851;42.984;20.336;2023-06-10T04:17:50;12.27;;;6.63;;
55330;SDS011;58851;42.984;20.336;2023-06-10T04:20:16;7.90;;;5.15;;
55330;SDS011;58851;42.984;20.336;2023-06-10T04:22:42;11.07;;;5.97;;
55330;SDS011;58851;42.984;20.336;2023-06-10T04:25:09;9.25;;;6.13;;
55330;SDS011;58851;42.984;20.336;2023-06-10T04:27:35;10.95;;;6.75;;
55330;SDS011;58851;42.984;20.336;2023-06-10T04:30:02;9.98;;;5.80;;
55330;SDS011;58851;42.984;20.336;2023-06-10T04:32:29;9.68;;;6.25;;
55330;SDS011;58851;42.984;20.336;2023-06-10T04:34:55;11.25;;;6.53;;
55330;SDS011;58851;42.984;20.336;2023-06-10T04:37:21;11.65;;;6.57;;
55330;SDS011;58851;42.984;20.336;2023-06-10T04:39:47;11.55;;;6.82;;
55330;SDS011;58851;42.984;20.336;2023-06-10T04:42:12;11.00;;;6.05;;
55330;SDS011;58851;42.984;20.336;2023-06-10T04:44:39;16.67;;;7.47;;
55330;SDS011;58851;42.984;20.336;2023-06-10T04:47:05;10.15;;;6.75;;
55330;SDS011;58851;42.984;20.336;2023-06-10T04:49:33;12.43;;;6.72;;
55330;SDS011;58851;42.984;20.336;2023-06-10T04:51:59;12.23;;;6.32;;
55330;SDS011;58851;42.984;20.336;2023-06-10T04:54:25;11.40;;;6.50;;
55330;SDS011;58851;42.984;20.336;2023-06-10T04:56:51;10.50;;;7.03;;
55330;SDS011;58851;42.984;20.336;2023-06-10T04:59:17;8.63;;;5.80;;
55330;SDS011;58851;42.984;20.336;2023-06-10T05:01:42;10.65;;;6.00;;
55330;SDS011;58851;42.984;20.336;2023-06-10T05:04:08;8.23;;;5.60;;
55330;SDS011;58851;42.984;20.336;2023-06-10T05:06:34;11.65;;;5.45;;
55330;SDS011;58851;42.984;20.336;2023-06-10T05:09:01;11.32;;;6.68;;
55330;SDS011;58851;42.984;20.336;2023-06-10T05:11:27;7.68;;;4.75;;
55330;SDS011;58851;42.984;20.336;2023-06-10T05:13:53;10.77;;;5.72;;
55330;SDS011;58851;42.984;20.336;2023-06-10T05:16:18;8.82;;;6.05;;
55330;SDS011;58851;42.984;20.336;2023-06-10T05:18:44;8.35;;;6.05;;
55330;SDS011;58851;42.984;20.336;2023-06-10T05:21:10;12.30;;;6.80;;
55330;SDS011;58851;42.984;20.336;2023-06-10T05:23:36;9.93;;;6.45;;
55330;SDS011;58851;42.984;20.336;2023-06-10T05:26:02;11.02;;;7.80;;
55330;SDS011;58851;42.984;20.336;2023-06-10T05:28:28;12.88;;;6.88;;
55330;SDS011;58851;42.984;20.336;2023-06-10T05:30:54;12.23;;;6.57;;
55330;SDS011;58851;42.984;20.336;2023-06-10T05:33:20;10.68;;;5.93;;
55330;SDS011;58851;42.984;20.336;2023-06-10T05:35:45;12.23;;;6.80;;
55330;SDS011;58851;42.984;20.336;2023-06-10T05:38:11;10.10;;;6.00;;
55330;SDS011;58851;42.984;20.336;2023-06-10T05:40:37;10.23;;;6.85;;
55330;SDS011;58851;42.984;20.336;2023-06-10T05:43:03;10.73;;;6.97;;
55330;SDS011;58851;42.984;20.336;2023-06-10T05:45:29;12.00;;;7.60;;
55330;SDS011;58851;42.984;20.336;2023-06-10T05:47:54;14.77;;;7.05;;
55330;SDS011;58851;42.984;20.336;2023-06-10T05:50:20;7.82;;;5.72;;
55330;SDS011;58851;42.984;20.336;2023-06-10T05:52:46;10.02;;;5.82;;
55330;SDS011;58851;42.984;20.336;2023-06-10T05:55:12;11.73;;;6.93;;
55330;SDS011;58851;42.984;20.336;2023-06-10T05:57:38;9.05;;;5.93;;
55330;SDS011;58851;42.984;20.336;2023-06-10T06:00:06;9.27;;;5.78;;
55330;SDS011;58851;42.984;20.336;2023-06-10T06:02:32;12.10;;;6.35;;
55330;SDS011;58851;42.984;20.336;2023-06-10T06:04:58;7.88;;;6.20;;
55330;SDS011;58851;42.984;20.336;2023-06-10T06:07:24;10.73;;;6.50;;
55330;SDS011;58851;42.984;20.336;2023-06-10T06:09:50;11.05;;;7.32;;
55330;SDS011;58851;42.984;20.336;2023-06-10T06:12:15;8.13;;;6.35;;
55330;SDS011;58851;42.984;20.336;2023-06-10T06:14:41;9.32;;;7.00;;
55330;SDS011;58851;42.984;20.336;2023-06-10T06:17:07;9.93;;;7.03;;
55330;SDS011;58851;42.984;20.336;2023-06-10T06:19:33;11.02;;;6.82;;
55330;SDS011;58851;42.984;20.336;2023-06-10T06:21:59;10.65;;;7.13;;
55330;SDS011;58851;42.984;20.336;2023-06-10T06:24:25;10.70;;;6.82;;
55330;SDS011;58851;42.984;20.336;2023-06-10T06:26:51;9.85;;;6.57;;
55330;SDS011;58851;42.984;20.336;2023-06-10T06:29:17;8.43;;;6.10;;
55330;SDS011;58851;42.984;20.336;2023-06-10T06:31:43;12.35;;;6.82;;
55330;SDS011;58851;42.984;20.336;2023-06-10T06:34:09;11.30;;;6.85;;
55330;SDS011;58851;42.984;20.336;2023-06-10T06:36:34;10.10;;;6.90;;
55330;SDS011;58851;42.984;20.336;2023-06-10T06:39:00;12.63;;;7.80;;
55330;SDS011;58851;42.984;20.336;2023-06-10T06:41:26;9.40;;;6.70;;
55330;SDS011;58851;42.984;20.336;2023-06-10T06:43:53;12.98;;;8.90;;
55330;SDS011;58851;42.984;20.336;2023-06-10T06:46:19;15.20;;;10.20;;
55330;SDS011;58851;42.984;20.336;2023-06-10T06:48:46;12.98;;;7.97;;
55330;SDS011;58851;42.984;20.336;2023-06-10T06:51:12;13.70;;;8.02;;
55330;SDS011;58851;42.984;20.336;2023-06-10T06:53:38;16.05;;;8.90;;
55330;SDS011;58851;42.984;20.336;2023-06-10T06:56:09;18.88;;;10.90;;
55330;SDS011;58851;42.984;20.336;2023-06-10T06:58:36;11.07;;;8.10;;
55330;SDS011;58851;42.984;20.336;2023-06-10T07:01:01;14.30;;;9.35;;
55330;SDS011;58851;42.984;20.336;2023-06-10T07:03:28;16.40;;;8.75;;
55330;SDS011;58851;42.984;20.336;2023-06-10T07:05:53;13.65;;;7.97;;
55330;SDS011;58851;42.984;20.336;2023-06-10T07:08:19;11.77;;;7.32;;
55330;SDS011;58851;42.984;20.336;2023-06-10T07:10:45;18.73;;;8.50;;
55330;SDS011;58851;42.984;20.336;2023-06-10T07:13:11;10.75;;;7.38;;
55330;SDS011;58851;42.984;20.336;2023-06-10T07:15:36;12.23;;;6.85;;
55330;SDS011;58851;42.984;20.336;2023-06-10T07:18:04;10.07;;;7.22;;
55330;SDS011;58851;42.984;20.336;2023-06-10T07:20:30;10.88;;;8.10;;
55330;SDS011;58851;42.984;20.336;2023-06-10T07:22:55;11.90;;;8.23;;
55330;SDS011;58851;42.984;20.336;2023-06-10T07:25:21;10.52;;;7.30;;
55330;SDS011;58851;42.984;20.336;2023-06-10T07:27:47;11.30;;;7.47;;
55330;SDS011;58851;42.984;20.336;2023-06-10T07:30:13;10.50;;;7.45;;
55330;SDS011;58851;42.984;20.336;2023-06-10T07:32:39;6.72;;;4.97;;
55330;SDS011;58851;42.984;20.336;2023-06-10T07:35:07;8.88;;;5.35;;
55330;SDS011;58851;42.984;20.336;2023-06-10T07:37:35;9.40;;;5.93;;
55330;SDS011;58851;42.984;20.336;2023-06-10T07:40:01;10.48;;;5.28;;
55330;SDS011;58851;42.984;20.336;2023-06-10T07:42:27;6.63;;;5.28;;
55330;SDS011;58851;42.984;20.336;2023-06-10T07:44:53;9.68;;;5.55;;
55330;SDS011;58851;42.984;20.336;2023-06-10T07:47:18;6.93;;;5.32;;
55330;SDS011;58851;42.984;20.336;2023-06-10T07:49:44;11.80;;;5.65;;
55330;SDS011;58851;42.984;20.336;2023-06-10T07:52:10;8.85;;;5.47;;
55330;SDS011;58851;42.984;20.336;2023-06-10T07:54:36;9.32;;;4.93;;
55330;SDS011;58851;42.984;20.336;2023-06-10T07:57:01;12.02;;;5.93;;
55330;SDS011;58851;42.984;20.336;2023-06-10T07:59:28;7.38;;;5.18;;
55330;SDS011;58851;42.984;20.336;2023-06-10T08:01:54;11.57;;;8.20;;
55330;SDS011;58851;42.984;20.336;2023-06-10T08:04:20;12.43;;;7.63;;
55330;SDS011;58851;42.984;20.336;2023-06-10T08:06:45;11.88;;;6.32;;
55330;SDS011;58851;42.984;20.336;2023-06-10T08:09:11;11.52;;;7.03;;
55330;SDS011;58851;42.984;20.336;2023-06-10T08:11:37;11.65;;;7.88;;
55330;SDS011;58851;42.984;20.336;2023-06-10T08:14:02;11.32;;;7.47;;
55330;SDS011;58851;42.984;20.336;2023-06-10T08:16:28;9.68;;;7.63;;
55330;SDS011;58851;42.984;20.336;2023-06-10T08:18:54;10.00;;;7.75;;
55330;SDS011;58851;42.984;20.336;2023-06-10T08:21:20;9.95;;;8.05;;
55330;SDS011;58851;42.984;20.336;2023-06-10T08:23:46;8.20;;;6.72;;
55330;SDS011;58851;42.984;20.336;2023-06-10T08:26:11;7.78;;;6.00;;
55330;SDS011;58851;42.984;20.336;2023-06-10T08:28:37;8.73;;;6.45;;
55330;SDS011;58851;42.984;20.336;2023-06-10T08:31:03;8.57;;;5.50;;
55330;SDS011;58851;42.984;20.336;2023-06-10T08:33:29;7.20;;;5.70;;
55330;SDS011;58851;42.984;20.336;2023-06-10T08:35:55;5.78;;;4.68;;
55330;SDS011;58851;42.984;20.336;2023-06-10T08:38:20;9.70;;;4.60;;
55330;SDS011;58851;42.984;20.336;2023-06-10T08:40:46;8.35;;;5.07;;
55330;SDS011;58851;42.984;20.336;2023-06-10T08:46:09;8.15;;;5.45;;
55330;SDS011;58851;42.984;20.336;2023-06-10T08:48:37;6.88;;;4.80;;
55330;SDS011;58851;42.984;20.336;2023-06-10T08:51:10;7.90;;;4.82;;
55330;SDS011;58851;42.984;20.336;2023-06-10T08:53:36;10.98;;;6.43;;
55330;SDS011;58851;42.984;20.336;2023-06-10T08:56:08;9.88;;;6.15;;
55330;SDS011;58851;42.984;20.336;2023-06-10T08:58:36;11.52;;;8.40;;
55330;SDS011;58851;42.984;20.336;2023-06-10T09:01:07;9.13;;;5.80;;
55330;SDS011;58851;42.984;20.336;2023-06-10T09:03:34;8.38;;;5.68;;
55330;SDS011;58851;42.984;20.336;2023-06-10T09:06:04;6.35;;;4.72;;
55330;SDS011;58851;42.984;20.336;2023-06-10T09:08:31;6.07;;;5.20;;
55330;SDS011;58851;42.984;20.336;2023-06-10T09:10:58;10.32;;;4.82;;
55330;SDS011;58851;42.984;20.336;2023-06-10T09:13:25;8.20;;;5.13;;
55330;SDS011;58851;42.984;20.336;2023-06-10T09:15:51;6.43;;;4.97;;
55330;SDS011;58851;42.984;20.336;2023-06-10T09:18:16;5.22;;;3.88;;
55330;SDS011;58851;42.984;20.336;2023-06-10T09:20:43;7.45;;;5.53;;
55330;SDS011;58851;42.984;20.336;2023-06-10T09:23:09;8.95;;;4.68;;
55330;SDS011;58851;42.984;20.336;2023-06-10T09:25:35;12.50;;;7.25;;
55330;SDS011;58851;42.984;20.336;2023-06-10T09:28:02;13.35;;;8.90;;
55330;SDS011;58851;42.984;20.336;2023-06-10T09:32:56;12.57;;;7.97;;
55330;SDS011;58851;42.984;20.336;2023-06-10T09:35:24;10.23;;;8.07;;
55330;SDS011;58851;42.984;20.336;2023-06-10T09:37:57;12.73;;;8.18;;
55330;SDS011;58851;42.984;20.336;2023-06-10T09:40:25;10.30;;;8.25;;
55330;SDS011;58851;42.984;20.336;2023-06-10T09:42:59;10.40;;;8.38;;
55330;SDS011;58851;42.984;20.336;2023-06-10T09:45:31;11.73;;;9.02;;
55330;SDS011;58851;42.984;20.336;2023-06-10T09:47:57;11.35;;;8.02;;
55330;SDS011;58851;42.984;20.336;2023-06-10T09:50:23;16.73;;;9.52;;
55330;SDS011;58851;42.984;20.336;2023-06-10T09:52:50;14.52;;;7.75;;
55330;SDS011;58851;42.984;20.336;2023-06-10T09:55:16;9.43;;;6.93;;
55330;SDS011;58851;42.984;20.336;2023-06-10T09:57:42;10.05;;;7.20;;
55330;SDS011;58851;42.984;20.336;2023-06-10T10:00:12;10.00;;;7.43;;
55330;SDS011;58851;42.984;20.336;2023-06-10T10:05:19;10.05;;;7.47;;
55330;SDS011;58851;42.984;20.336;2023-06-10T10:07:46;10.18;;;7.68;;
55330;SDS011;58851;42.984;20.336;2023-06-10T10:10:13;9.57;;;7.82;;
55330;SDS011;58851;42.984;20.336;2023-06-10T10:12:41;11.15;;;9.40;;
55330;SDS011;58851;42.984;20.336;2023-06-10T10:15:07;11.60;;;8.73;;
55330;SDS011;58851;42.984;20.336;2023-06-10T10:17:39;16.42;;;11.50;;
55330;SDS011;58851;42.984;20.336;2023-06-10T10:20:09;14.20;;;10.05;;
55330;SDS011;58851;42.984;20.336;2023-06-10T10:22:38;11.35;;;8.68;;
55330;SDS011;58851;42.984;20.336;2023-06-10T10:25:12;11.88;;;9.40;;
55330;SDS011;58851;42.984;20.336;2023-06-10T10:27:46;12.05;;;9.65;;
55330;SDS011;58851;42.984;20.336;2023-06-10T10:30:15;12.65;;;9.85;;
55330;SDS011;58851;42.984;20.336;2023-06-10T10:35:17;12.70;;;9.98;;
55330;SDS011;58851;42.984;20.336;2023-06-10T10:37:48;14.88;;;9.65;;
55330;SDS011;58851;42.984;20.336;2023-06-10T10:40:16;14.88;;;10.35;;
55330;SDS011;58851;42.984;20.336;2023-06-10T10:42:42;19.55;;;12.02;;
55330;SDS011;58851;42.984;20.336;2023-06-10T10:45:08;14.80;;;12.35;;
55330;SDS011;58851;42.984;20.336;2023-06-10T10:47:35;19.35;;;12.00;;
55330;SDS011;58851;42.984;20.336;2023-06-10T10:50:12;19.35;;;12.80;;
55330;SDS011;58851;42.984;20.336;2023-06-10T10:53:13;21.67;;;12.52;;
55330;SDS011;58851;42.984;20.336;2023-06-10T10:55:33;17.48;;;12.05;;
55330;SDS011;58851;42.984;20.336;2023-06-10T11:03:07;19.60;;;13.90;;
55330;SDS011;58851;42.984;20.336;2023-06-10T11:05:38;18.30;;;12.85;;
55330;SDS011;58851;42.984;20.336;2023-06-10T11:08:07;16.02;;;11.15;;
55330;SDS011;58851;42.984;20.336;2023-06-10T11:10:40;17.15;;;10.20;;
55330;SDS011;58851;42.984;20.336;2023-06-10T11:13:15;15.05;;;9.50;;
55330;SDS011;58851;42.984;20.336;2023-06-10T11:15:44;11.93;;;8.98;;
55330;SDS011;58851;42.984;20.336;2023-06-10T11:21:00;16.38;;;10.20;;
55330;SDS011;58851;42.984;20.336;2023-06-10T11:26:12;11.88;;;9.63;;
55330;SDS011;58851;42.984;20.336;2023-06-10T11:28:40;8.32;;;6.90;;
55330;SDS011;58851;42.984;20.336;2023-06-10T11:31:06;8.77;;;7.05;;
55330;SDS011;58851;42.984;20.336;2023-06-10T11:33:32;10.13;;;7.18;;
55330;SDS011;58851;42.984;20.336;2023-06-10T11:35:58;8.75;;;6.60;;
55330;SDS011;58851;42.984;20.336;2023-06-10T11:38:24;8.40;;;6.82;;
55330;SDS011;58851;42.984;20.336;2023-06-10T11:40:50;15.23;;;9.27;;
55330;SDS011;58851;42.984;20.336;2023-06-10T11:43:19;14.18;;;8.93;;
55330;SDS011;58851;42.984;20.336;2023-06-10T11:45:45;12.20;;;8.73;;
55330;SDS011;58851;42.984;20.336;2023-06-10T11:48:14;10.63;;;8.38;;
55330;SDS011;58851;42.984;20.336;2023-06-10T11:50:40;15.50;;;9.65;;
55330;SDS011;58851;42.984;20.336;2023-06-10T11:53:07;10.93;;;8.00;;
55330;SDS011;58851;42.984;20.336;2023-06-10T11:55:43;9.95;;;7.93;;
55330;SDS011;58851;42.984;20.336;2023-06-10T11:58:17;9.75;;;8.10;;
55330;SDS011;58851;42.984;20.336;2023-06-10T12:00:50;11.23;;;9.50;;
55330;SDS011;58851;42.984;20.336;2023-06-10T12:03:18;12.18;;;9.45;;
55330;SDS011;58851;42.984;20.336;2023-06-10T12:05:58;10.65;;;8.93;;
55330;SDS011;58851;42.984;20.336;2023-06-10T12:08:25;12.57;;;8.90;;
55330;SDS011;58851;42.984;20.336;2023-06-10T12:10:51;12.38;;;8.20;;
55330;SDS011;58851;42.984;20.336;2023-06-10T12:13:17;11.90;;;9.57;;
55330;SDS011;58851;42.984;20.336;2023-06-10T12:15:43;10.48;;;9.32;;
55330;SDS011;58851;42.984;20.336;2023-06-10T12:18:16;16.00;;;8.65;;
55330;SDS011;58851;42.984;20.336;2023-06-10T12:20:46;13.25;;;8.55;;
55330;SDS011;58851;42.984;20.336;2023-06-10T12:23:13;13.45;;;8.35;;
55330;SDS011;58851;42.984;20.336;2023-06-10T12:25:59;15.48;;;8.95;;
55330;SDS011;58851;42.984;20.336;2023-06-10T12:28:25;10.55;;;8.30;;
55330;SDS011;58851;42.984;20.336;2023-06-10T12:30:52;11.23;;;8.20;;
55330;SDS011;58851;42.984;20.336;2023-06-10T12:33:32;11.10;;;8.57;;
55330;SDS011;58851;42.984;20.336;2023-06-10T12:36:00;13.18;;;8.98;;
55330;SDS011;58851;42.984;20.336;2023-06-10T12:38:26;13.85;;;9.80;;
55330;SDS011;58851;42.984;20.336;2023-06-10T12:40:52;15.02;;;10.50;;
55330;SDS011;58851;42.984;20.336;2023-06-10T12:43:22;12.18;;;10.05;;
55330;SDS011;58851;42.984;20.336;2023-06-10T12:45:48;12.15;;;10.50;;
55330;SDS011;58851;42.984;20.336;2023-06-10T12:48:21;12.63;;;10.10;;
55330;SDS011;58851;42.984;20.336;2023-06-10T12:50:52;15.37;;;9.87;;
55330;SDS011;58851;42.984;20.336;2023-06-10T12:53:19;12.85;;;10.52;;
55330;SDS011;58851;42.984;20.336;2023-06-10T12:55:46;13.70;;;10.52;;
55330;SDS011;58851;42.984;20.336;2023-06-10T12:58:12;17.23;;;10.95;;
55330;SDS011;58851;42.984;20.336;2023-06-10T13:00:39;15.10;;;10.55;;
55330;SDS011;58851;42.984;20.336;2023-06-10T13:03:07;15.43;;;11.85;;
55330;SDS011;58851;42.984;20.336;2023-06-10T13:05:37;16.45;;;12.98;;
55330;SDS011;58851;42.984;20.336;2023-06-10T13:08:04;14.63;;;11.80;;
55330;SDS011;58851;42.984;20.336;2023-06-10T13:10:32;12.70;;;10.77;;
55330;SDS011;58851;42.984;20.336;2023-06-10T13:12:59;15.07;;;11.98;;
55330;SDS011;58851;42.984;20.336;2023-06-10T13:15:26;12.65;;;10.02;;
55330;SDS011;58851;42.984;20.336;2023-06-10T13:17:52;14.98;;;11.70;;
55330;SDS011;58851;42.984;20.336;2023-06-10T13:20:18;13.02;;;11.63;;
55330;SDS011;58851;42.984;20.336;2023-06-10T13:22:44;12.10;;;8.77;;
55330;SDS011;58851;42.984;20.336;2023-06-10T13:25:10;12.18;;;10.15;;
55330;SDS011;58851;42.984;20.336;2023-06-10T13:27:36;12.57;;;9.70;;
55330;SDS011;58851;42.984;20.336;2023-06-10T13:30:07;10.82;;;9.43;;
55330;SDS011;58851;42.984;20.336;2023-06-10T13:32:35;11.15;;;9.18;;
55330;SDS011;58851;42.984;20.336;2023-06-10T13:35:01;10.65;;;8.77;;
55330;SDS011;58851;42.984;20.336;2023-06-10T13:37:28;13.68;;;11.02;;
55330;SDS011;58851;42.984;20.336;2023-06-10T13:39:54;11.13;;;8.63;;
55330;SDS011;58851;42.984;20.336;2023-06-10T13:42:20;40.88;;;35.30;;
55330;SDS011;58851;42.984;20.336;2023-06-10T13:44:46;34.53;;;29.77;;
55330;SDS011;58851;42.984;20.336;2023-06-10T13:47:14;37.17;;;33.35;;
55330;SDS011;58851;42.984;20.336;2023-06-10T13:49:40;20.83;;;18.48;;
55330;SDS011;58851;42.984;20.336;2023-06-10T13:52:06;11.65;;;9.30;;
55330;SDS011;58851;42.984;20.336;2023-06-10T13:54:33;31.85;;;28.67;;
55330;SDS011;58851;42.984;20.336;2023-06-10T13:57:02;10.45;;;7.97;;
55330;SDS011;58851;42.984;20.336;2023-06-10T13:59:29;13.13;;;11.25;;
55330;SDS011;58851;42.984;20.336;2023-06-10T14:01:54;12.07;;;9.25;;
55330;SDS011;58851;42.984;20.336;2023-06-10T14:04:21;10.93;;;7.85;;
55330;SDS011;58851;42.984;20.336;2023-06-10T14:06:47;12.88;;;11.20;;
55330;SDS011;58851;42.984;20.336;2023-06-10T14:09:13;13.30;;;7.85;;
55330;SDS011;58851;42.984;20.336;2023-06-10T14:11:39;8.63;;;7.47;;
55330;SDS011;58851;42.984;20.336;2023-06-10T14:14:07;13.35;;;8.55;;
55330;SDS011;58851;42.984;20.336;2023-06-10T14:16:33;10.52;;;8.43;;
55330;SDS011;58851;42.984;20.336;2023-06-10T14:18:58;9.88;;;8.43;;
55330;SDS011;58851;42.984;20.336;2023-06-10T14:21:25;10.57;;;7.45;;
55330;SDS011;58851;42.984;20.336;2023-06-10T14:23:51;9.98;;;8.35;;
55330;SDS011;58851;42.984;20.336;2023-06-10T14:26:18;12.93;;;8.25;;
55330;SDS011;58851;42.984;20.336;2023-06-10T14:28:46;9.10;;;7.40;;
55330;SDS011;58851;42.984;20.336;2023-06-10T14:31:13;9.52;;;7.90;;
55330;SDS011;58851;42.984;20.336;2023-06-10T14:33:38;7.47;;;6.55;;
55330;SDS011;58851;42.984;20.336;2023-06-10T14:36:07;7.88;;;6.53;;
55330;SDS011;58851;42.984;20.336;2023-06-10T14:38:33;8.55;;;6.18;;
55330;SDS011;58851;42.984;20.336;2023-06-10T14:40:58;10.65;;;7.15;;
55330;SDS011;58851;42.984;20.336;2023-06-10T14:43:24;8.48;;;6.82;;
55330;SDS011;58851;42.984;20.336;2023-06-10T14:45:50;9.18;;;6.72;;